sensor_id;sensor_type;location;lat;lon;timestamp;temperature;humidity
65707;SHT31;52423;43.512;5.220;2024-01-15T00:00:14;2.60;86.91
65707;SHT31;52423;43.512;5.220;2024-01-15T00:02:39;2.70;86.19
65707;SHT31;52423;43.512;5.220;2024-01-15T00:05:05;2.72;86.23
65707;SHT31;52423;43.512;5.220;2024-01-15T00:07:30;2.63;86.08
65707;SHT31;52423;43.512;5.220;2024-01-15T00:09:56;2.57;86.07
65707;SHT31;52423;43.512;5.220;2024-01-15T00:12:21;2.56;86.12
65707;SHT31;52423;43.512;5.220;2024-01-15T00:14:46;2.50;86.21
65707;SHT31;52423;43.512;5.220;2024-01-15T00:17:12;2.44;86.09
65707;SHT31;52423;43.512;5.220;2024-01-15T00:19:38;2.37;86.93
65707;SHT31;52423;43.512;5.220;2024-01-15T00:22:03;2.37;86.94
65707;SHT31;52423;43.512;5.220;2024-01-15T00:24:29;2.36;87.19
65707;SHT31;52423;43.512;5.220;2024-01-15T00:26:54;2.29;87.07
65707;SHT31;52423;43.512;5.220;2024-01-15T00:29:20;2.22;86.68
65707;SHT31;52423;43.512;5.220;2024-01-15T00:31:46;2.29;86.57
65707;SHT31;52423;43.512;5.220;2024-01-15T00:34:11;2.23;86.78
65707;SHT31;52423;43.512;5.220;2024-01-15T00:36:37;2.33;87.48
65707;SHT31;52423;43.512;5.220;2024-01-15T00:39:02;2.29;87.29
65707;SHT31;52423;43.512;5.220;2024-01-15T00:41:30;2.25;87.15
65707;SHT31;52423;43.512;5.220;2024-01-15T00:43:56;2.23;87.20
65707;SHT31;52423;43.512;5.220;2024-01-15T00:46:21;2.19;86.89
65707;SHT31;52423;43.512;5.220;2024-01-15T00:48:47;2.26;87.36
65707;SHT31;52423;43.512;5.220;2024-01-15T00:51:12;2.30;87.16
65707;SHT31;52423;43.512;5.220;2024-01-15T00:53:38;2.36;87.04
65707;SHT31;52423;43.512;5.220;2024-01-15T00:56:03;2.30;87.18
65707;SHT31;52423;43.512;5.220;2024-01-15T00:58:29;2.30;86.95
65707;SHT31;52423;43.512;5.220;2024-01-15T01:00:54;2.33;86.33
65707;SHT31;52423;43.512;5.220;2024-01-15T01:03:20;2.35;86.30
65707;SHT31;52423;43.512;5.220;2024-01-15T01:05:46;2.25;86.96
65707;SHT31;52423;43.512;5.220;2024-01-15T01:08:13;2.29;87.09
65707;SHT31;52423;43.512;5.220;2024-01-15T01:10:38;2.28;86.89
65707;SHT31;52423;43.512;5.220;2024-01-15T01:13:04;2.23;87.20
65707;SHT31;52423;43.512;5.220;2024-01-15T01:15:29;2.22;86.71
65707;SHT31;52423;43.512;5.220;2024-01-15T01:17:54;2.21;86.96
65707;SHT31;52423;43.512;5.220;2024-01-15T01:20:20;2.16;87.49
65707;SHT31;52423;43.512;5.220;2024-01-15T01:22:45;2.19;87.54
65707;SHT31;52423;43.512;5.220;2024-01-15T01:25:10;2.26;87.11
65707;SHT31;52423;43.512;5.220;2024-01-15T01:27:36;2.19;86.01
65707;SHT31;52423;43.512;5.220;2024-01-15T01:30:01;2.11;87.32
65707;SHT31;52423;43.512;5.220;2024-01-15T01:32:27;2.11;87.47
65707;SHT31;52423;43.512;5.220;2024-01-15T01:34:52;2.13;86.82
65707;SHT31;52423;43.512;5.220;2024-01-15T01:37:18;2.13;86.61
65707;SHT31;52423;43.512;5.220;2024-01-15T01:39:43;2.13;86.94
65707;SHT31;52423;43.512;5.220;2024-01-15T01:42:09;2.09;86.68
65707;SHT31;52423;43.512;5.220;2024-01-15T01:44:34;2.09;86.91
65707;SHT31;52423;43.512;5.220;2024-01-15T01:47:00;2.06;87.17
65707;SHT31;52423;43.512;5.220;2024-01-15T01:49:26;2.12;86.90
65707;SHT31;52423;43.512;5.220;2024-01-15T01:51:53;2.12;86.98
65707;SHT31;52423;43.512;5.220;2024-01-15T01:54:20;2.08;87.32
65707;SHT31;52423;43.512;5.220;2024-01-15T01:56:47;2.06;87.78
65707;SHT31;52423;43.512;5.220;2024-01-15T01:59:13;2.08;87.99
65707;SHT31;52423;43.512;5.220;2024-01-15T02:01:39;2.05;87.43
65707;SHT31;52423;43.512;5.220;2024-01-15T02:04:04;2.02;87.21
65707;SHT31;52423;43.512;5.220;2024-01-15T02:06:30;2.09;87.49
65707;SHT31;52423;43.512;5.220;2024-01-15T02:08:55;2.13;87.58
65707;SHT31;52423;43.512;5.220;2024-01-15T02:11:21;2.21;87.49
65707;SHT31;52423;43.512;5.220;2024-01-15T02:13:47;2.21;86.86
65707;SHT31;52423;43.512;5.220;2024-01-15T02:16:12;2.23;87.09
65707;SHT31;52423;43.512;5.220;2024-01-15T02:18:42;2.21;86.94
65707;SHT31;52423;43.512;5.220;2024-01-15T02:21:09;2.22;87.10
65707;SHT31;52423;43.512;5.220;2024-01-15T02:23:34;2.23;87.30
65707;SHT31;52423;43.512;5.220;2024-01-15T02:25:59;2.26;87.72
65707;SHT31;52423;43.512;5.220;2024-01-15T02:28:25;2.25;87.50
65707;SHT31;52423;43.512;5.220;2024-01-15T02:30:50;2.26;87.55
65707;SHT31;52423;43.512;5.220;2024-01-15T02:33:16;2.23;87.98
65707;SHT31;52423;43.512;5.220;2024-01-15T02:35:41;2.26;87.70
65707;SHT31;52423;43.512;5.220;2024-01-15T02:38:07;2.26;87.81
65707;SHT31;52423;43.512;5.220;2024-01-15T02:40:32;2.28;87.47
65707;SHT31;52423;43.512;5.220;2024-01-15T02:42:58;2.15;88.20
65707;SHT31;52423;43.512;5.220;2024-01-15T02:45:24;2.19;88.06
65707;SHT31;52423;43.512;5.220;2024-01-15T02:47:49;2.21;87.18
65707;SHT31;52423;43.512;5.220;2024-01-15T02:50:15;2.23;87.60
65707;SHT31;52423;43.512;5.220;2024-01-15T02:52:44;2.26;87.39
65707;SHT31;52423;43.512;5.220;2024-01-15T02:55:09;2.11;86.77
65707;SHT31;52423;43.512;5.220;2024-01-15T02:57:34;2.04;87.01
65707;SHT31;52423;43.512;5.220;2024-01-15T03:00:00;2.09;87.62
65707;SHT31;52423;43.512;5.220;2024-01-15T03:02:26;2.08;87.08
65707;SHT31;52423;43.512;5.220;2024-01-15T03:04:51;2.11;87.28
65707;SHT31;52423;43.512;5.220;2024-01-15T03:07:17;2.13;87.55
65707;SHT31;52423;43.512;5.220;2024-01-15T03:09:42;2.21;86.91
65707;SHT31;52423;43.512;5.220;2024-01-15T03:12:08;2.15;87.58
65707;SHT31;52423;43.512;5.220;2024-01-15T03:14:33;2.25;87.62
65707;SHT31;52423;43.512;5.220;2024-01-15T03:16:58;2.26;87.03
65707;SHT31;52423;43.512;5.220;2024-01-15T03:19:25;2.11;88.00
65707;SHT31;52423;43.512;5.220;2024-01-15T03:21:51;2.12;87.86
65707;SHT31;52423;43.512;5.220;2024-01-15T03:24:16;2.11;88.34
65707;SHT31;52423;43.512;5.220;2024-01-15T03:26:42;2.16;87.82
65707;SHT31;52423;43.512;5.220;2024-01-15T03:29:07;2.13;87.94
65707;SHT31;52423;43.512;5.220;2024-01-15T03:31:33;2.09;87.90
65707;SHT31;52423;43.512;5.220;2024-01-15T03:33:58;2.09;88.61
65707;SHT31;52423;43.512;5.220;2024-01-15T03:36:23;2.15;88.11
65707;SHT31;52423;43.512;5.220;2024-01-15T03:38:49;2.18;88.05
65707;SHT31;52423;43.512;5.220;2024-01-15T03:41:14;2.19;88.00
65707;SHT31;52423;43.512;5.220;2024-01-15T03:43:40;2.15;88.45
65707;SHT31;52423;43.512;5.220;2024-01-15T03:46:05;2.19;88.65
65707;SHT31;52423;43.512;5.220;2024-01-15T03:48:31;2.18;87.85
65707;SHT31;52423;43.512;5.220;2024-01-15T03:50:56;2.12;87.77
65707;SHT31;52423;43.512;5.220;2024-01-15T03:53:22;2.12;87.87
65707;SHT31;52423;43.512;5.220;2024-01-15T03:55:47;2.25;87.69
65707;SHT31;52423;43.512;5.220;2024-01-15T03:58:12;2.23;87.34
65707;SHT31;52423;43.512;5.220;2024-01-15T04:00:40;2.18;88.09
65707;SHT31;52423;43.512;5.220;2024-01-15T04:03:05;2.18;87.67
65707;SHT31;52423;43.512;5.220;2024-01-15T04:05:31;2.13;87.82
65707;SHT31;52423;43.512;5.220;2024-01-15T04:07:56;2.09;87.97
65707;SHT31;52423;43.512;5.220;2024-01-15T04:10:22;2.16;87.70
65707;SHT31;52423;43.512;5.220;2024-01-15T04:12:47;2.12;88.12
65707;SHT31;52423;43.512;5.220;2024-01-15T04:15:12;2.11;88.31
65707;SHT31;52423;43.512;5.220;2024-01-15T04:17:38;2.23;87.49
65707;SHT31;52423;43.512;5.220;2024-01-15T04:20:04;2.21;87.67
65707;SHT31;52423;43.512;5.220;2024-01-15T04:22:30;2.16;87.13
65707;SHT31;52423;43.512;5.220;2024-01-15T04:24:55;2.15;87.50
65707;SHT31;52423;43.512;5.220;2024-01-15T04:27:21;2.12;87.66
65707;SHT31;52423;43.512;5.220;2024-01-15T04:29:46;2.09;87.78
65707;SHT31;52423;43.512;5.220;2024-01-15T04:32:11;2.06;88.01
65707;SHT31;52423;43.512;5.220;2024-01-15T04:34:37;2.04;88.26
65707;SHT31;52423;43.512;5.220;2024-01-15T04:37:02;2.05;88.55
65707;SHT31;52423;43.512;5.220;2024-01-15T04:39:29;2.02;88.25
65707;SHT31;52423;43.512;5.220;2024-01-15T04:41:54;1.98;88.05
65707;SHT31;52423;43.512;5.220;2024-01-15T04:44:19;1.86;88.26
65707;SHT31;52423;43.512;5.220;2024-01-15T04:46:45;1.95;88.24
65707;SHT31;52423;43.512;5.220;2024-01-15T04:49:11;1.88;88.43
65707;SHT31;52423;43.512;5.220;2024-01-15T04:51:36;1.98;88.03
65707;SHT31;52423;43.512;5.220;2024-01-15T04:54:01;1.99;88.15
65707;SHT31;52423;43.512;5.220;2024-01-15T04:56:27;1.92;88.68
65707;SHT31;52423;43.512;5.220;2024-01-15T04:58:52;1.98;88.83
65707;SHT31;52423;43.512;5.220;2024-01-15T05:01:18;2.08;88.33
65707;SHT31;52423;43.512;5.220;2024-01-15T05:03:43;2.12;87.67
65707;SHT31;52423;43.512;5.220;2024-01-15T05:06:09;2.09;87.48
65707;SHT31;52423;43.512;5.220;2024-01-15T05:08:34;2.02;87.13
65707;SHT31;52423;43.512;5.220;2024-01-15T05:10:59;1.98;87.96
65707;SHT31;52423;43.512;5.220;2024-01-15T05:13:25;2.04;87.63
65707;SHT31;52423;43.512;5.220;2024-01-15T05:15:50;1.98;88.07
65707;SHT31;52423;43.512;5.220;2024-01-15T05:18:16;2.01;88.52
65707;SHT31;52423;43.512;5.220;2024-01-15T05:20:42;2.06;88.59
65707;SHT31;52423;43.512;5.220;2024-01-15T05:23:07;2.08;88.01
65707;SHT31;52423;43.512;5.220;2024-01-15T05:25:33;2.01;87.75
65707;SHT31;52423;43.512;5.220;2024-01-15T05:27:58;2.01;87.64
65707;SHT31;52423;43.512;5.220;2024-01-15T05:30:24;1.94;87.62
65707;SHT31;52423;43.512;5.220;2024-01-15T05:32:49;1.85;87.78
65707;SHT31;52423;43.512;5.220;2024-01-15T05:35:15;1.88;87.91
65707;SHT31;52423;43.512;5.220;2024-01-15T05:37:43;1.88;87.87
65707;SHT31;52423;43.512;5.220;2024-01-15T05:40:09;1.91;87.91
65707;SHT31;52423;43.512;5.220;2024-01-15T05:42:35;1.89;87.74
65707;SHT31;52423;43.512;5.220;2024-01-15T05:45:00;1.98;87.57
65707;SHT31;52423;43.512;5.220;2024-01-15T05:47:28;1.94;87.45
65707;SHT31;52423;43.512;5.220;2024-01-15T05:49:54;1.91;87.04
65707;SHT31;52423;43.512;5.220;2024-01-15T05:52:20;1.95;86.79
65707;SHT31;52423;43.512;5.220;2024-01-15T05:54:47;1.95;86.53
65707;SHT31;52423;43.512;5.220;2024-01-15T05:57:12;1.92;87.05
65707;SHT31;52423;43.512;5.220;2024-01-15T05:59:37;1.86;86.58
65707;SHT31;52423;43.512;5.220;2024-01-15T06:02:03;1.84;86.37
65707;SHT31;52423;43.512;5.220;2024-01-15T06:04:29;1.88;87.08
65707;SHT31;52423;43.512;5.220;2024-01-15T06:06:54;1.82;86.80
65707;SHT31;52423;43.512;5.220;2024-01-15T06:09:19;1.81;87.15
65707;SHT31;52423;43.512;5.220;2024-01-15T06:11:45;1.79;86.86
65707;SHT31;52423;43.512;5.220;2024-01-15T06:14:10;1.88;86.80
65707;SHT31;52423;43.512;5.220;2024-01-15T06:16:36;1.89;86.37
65707;SHT31;52423;43.512;5.220;2024-01-15T06:19:01;1.88;86.22
65707;SHT31;52423;43.512;5.220;2024-01-15T06:21:26;1.84;86.30
65707;SHT31;52423;43.512;5.220;2024-01-15T06:23:52;1.81;86.11
65707;SHT31;52423;43.512;5.220;2024-01-15T06:26:17;1.78;86.28
65707;SHT31;52423;43.512;5.220;2024-01-15T06:28:43;1.81;86.54
65707;SHT31;52423;43.512;5.220;2024-01-15T06:31:08;1.81;86.73
65707;SHT31;52423;43.512;5.220;2024-01-15T06:33:33;1.78;86.32
65707;SHT31;52423;43.512;5.220;2024-01-15T06:35:59;1.78;86.33
65707;SHT31;52423;43.512;5.220;2024-01-15T06:38:24;1.78;86.29
65707;SHT31;52423;43.512;5.220;2024-01-15T06:40:50;1.81;86.77
65707;SHT31;52423;43.512;5.220;2024-01-15T06:43:17;1.85;86.87
65707;SHT31;52423;43.512;5.220;2024-01-15T06:45:45;1.86;86.80
65707;SHT31;52423;43.512;5.220;2024-01-15T06:48:11;1.92;86.76
65707;SHT31;52423;43.512;5.220;2024-01-15T06:50:40;1.89;86.76
65707;SHT31;52423;43.512;5.220;2024-01-15T06:53:05;1.94;86.85
65707;SHT31;52423;43.512;5.220;2024-01-15T06:55:30;1.98;87.09
65707;SHT31;52423;43.512;5.220;2024-01-15T06:57:56;1.97;86.76
65707;SHT31;52423;43.512;5.220;2024-01-15T07:00:21;1.97;86.48
65707;SHT31;52423;43.512;5.220;2024-01-15T07:02:47;1.97;86.71
65707;SHT31;52423;43.512;5.220;2024-01-15T07:05:12;2.01;86.42
65707;SHT31;52423;43.512;5.220;2024-01-15T07:07:37;1.99;86.68
65707;SHT31;52423;43.512;5.220;2024-01-15T07:10:03;2.09;86.26
65707;SHT31;52423;43.512;5.220;2024-01-15T07:12:29;2.06;86.21
65707;SHT31;52423;43.512;5.220;2024-01-15T07:14:56;2.12;85.73
65707;SHT31;52423;43.512;5.220;2024-01-15T07:17:21;1.97;86.15
65707;SHT31;52423;43.512;5.220;2024-01-15T07:19:47;2.05;85.11
65707;SHT31;52423;43.512;5.220;2024-01-15T07:22:12;2.01;85.93
65707;SHT31;52423;43.512;5.220;2024-01-15T07:24:38;2.04;86.45
65707;SHT31;52423;43.512;5.220;2024-01-15T07:27:04;2.08;86.38
65707;SHT31;52423;43.512;5.220;2024-01-15T07:29:30;2.09;86.51
65707;SHT31;52423;43.512;5.220;2024-01-15T07:31:58;2.08;86.47
65707;SHT31;52423;43.512;5.220;2024-01-15T07:34:24;2.15;86.58
65707;SHT31;52423;43.512;5.220;2024-01-15T07:36:49;2.26;86.15
65707;SHT31;52423;43.512;5.220;2024-01-15T07:39:14;2.39;85.80
65707;SHT31;52423;43.512;5.220;2024-01-15T07:41:40;2.52;85.13
65707;SHT31;52423;43.512;5.220;2024-01-15T07:44:05;2.63;84.85
65707;SHT31;52423;43.512;5.220;2024-01-15T07:46:30;2.79;84.31
65707;SHT31;52423;43.512;5.220;2024-01-15T07:48:57;2.87;83.54
65707;SHT31;52423;43.512;5.220;2024-01-15T07:51:23;3.05;83.68
65707;SHT31;52423;43.512;5.220;2024-01-15T07:53:49;3.15;82.64
65707;SHT31;52423;43.512;5.220;2024-01-15T07:56:14;3.35;82.83
65707;SHT31;52423;43.512;5.220;2024-01-15T07:58:42;3.51;82.64
65707;SHT31;52423;43.512;5.220;2024-01-15T08:01:07;3.63;82.26
65707;SHT31;52423;43.512;5.220;2024-01-15T08:03:33;3.83;81.77
65707;SHT31;52423;43.512;5.220;2024-01-15T08:05:59;3.91;81.67
65707;SHT31;52423;43.512;5.220;2024-01-15T08:08:25;4.11;81.38
65707;SHT31;52423;43.512;5.220;2024-01-15T08:10:53;4.24;80.89
65707;SHT31;52423;43.512;5.220;2024-01-15T08:13:19;4.35;80.52
65707;SHT31;52423;43.512;5.220;2024-01-15T08:15:45;4.40;80.29
65707;SHT31;52423;43.512;5.220;2024-01-15T08:18:11;4.47;80.13
65707;SHT31;52423;43.512;5.220;2024-01-15T08:20:36;4.61;79.37
65707;SHT31;52423;43.512;5.220;2024-01-15T08:23:02;4.69;78.74
65707;SHT31;52423;43.512;5.220;2024-01-15T08:25:28;4.78;77.99
65707;SHT31;52423;43.512;5.220;2024-01-15T08:27:53;4.87;77.77
65707;SHT31;52423;43.512;5.220;2024-01-15T08:30:18;4.87;77.75
65707;SHT31;52423;43.512;5.220;2024-01-15T08:32:45;4.92;76.69
65707;SHT31;52423;43.512;5.220;2024-01-15T08:35:11;4.90;77.38
65707;SHT31;52423;43.512;5.220;2024-01-15T08:37:37;5.00;77.27
65707;SHT31;52423;43.512;5.220;2024-01-15T08:40:03;4.95;76.77
65707;SHT31;52423;43.512;5.220;2024-01-15T08:42:29;4.82;77.81
65707;SHT31;52423;43.512;5.220;2024-01-15T08:44:54;4.72;78.03
65707;SHT31;52423;43.512;5.220;2024-01-15T08:47:20;4.72;78.71
65707;SHT31;52423;43.512;5.220;2024-01-15T08:49:45;4.66;78.94
65707;SHT31;52423;43.512;5.220;2024-01-15T08:52:11;4.59;79.51
65707;SHT31;52423;43.512;5.220;2024-01-15T08:54:36;4.48;79.48
65707;SHT31;52423;43.512;5.220;2024-01-15T08:57:02;4.37;80.22
65707;SHT31;52423;43.512;5.220;2024-01-15T08:59:27;4.37;80.28
65707;SHT31;52423;43.512;5.220;2024-01-15T09:01:53;4.31;80.29
65707;SHT31;52423;43.512;5.220;2024-01-15T09:04:19;4.25;79.71
65707;SHT31;52423;43.512;5.220;2024-01-15T09:06:47;4.37;79.16
65707;SHT31;52423;43.512;5.220;2024-01-15T09:09:13;4.35;79.39
65707;SHT31;52423;43.512;5.220;2024-01-15T09:11:40;4.33;79.54
65707;SHT31;52423;43.512;5.220;2024-01-15T09:14:06;4.37;79.67
65707;SHT31;52423;43.512;5.220;2024-01-15T09:16:31;4.40;80.23
65707;SHT31;52423;43.512;5.220;2024-01-15T09:18:56;4.41;80.06
65707;SHT31;52423;43.512;5.220;2024-01-15T09:21:23;4.42;80.08
65707;SHT31;52423;43.512;5.220;2024-01-15T09:23:50;4.44;80.17
65707;SHT31;52423;43.512;5.220;2024-01-15T09:26:15;4.42;80.23
65707;SHT31;52423;43.512;5.220;2024-01-15T09:28:40;4.52;80.53
65707;SHT31;52423;43.512;5.220;2024-01-15T09:31:06;4.58;80.52
65707;SHT31;52423;43.512;5.220;2024-01-15T09:33:31;4.62;80.23
65707;SHT31;52423;43.512;5.220;2024-01-15T09:35:57;4.71;80.37
65707;SHT31;52423;43.512;5.220;2024-01-15T09:38:22;4.80;79.53
65707;SHT31;52423;43.512;5.220;2024-01-15T09:40:49;4.99;80.04
65707;SHT31;52423;43.512;5.220;2024-01-15T09:43:14;5.16;79.81
65707;SHT31;52423;43.512;5.220;2024-01-15T09:45:41;5.44;78.67
65707;SHT31;52423;43.512;5.220;2024-01-15T09:48:07;5.61;77.53
65707;SHT31;52423;43.512;5.220;2024-01-15T09:50:33;5.65;77.82
65707;SHT31;52423;43.512;5.220;2024-01-15T09:52:59;5.68;77.98
65707;SHT31;52423;43.512;5.220;2024-01-15T09:55:25;5.75;78.06
65707;SHT31;52423;43.512;5.220;2024-01-15T09:57:52;5.88;76.88
65707;SHT31;52423;43.512;5.220;2024-01-15T10:00:18;6.05;76.94
65707;SHT31;52423;43.512;5.220;2024-01-15T10:02:45;6.12;77.46
65707;SHT31;52423;43.512;5.220;2024-01-15T10:05:11;6.06;77.60
65707;SHT31;52423;43.512;5.220;2024-01-15T10:07:37;5.98;77.70
65707;SHT31;52423;43.512;5.220;2024-01-15T10:10:03;5.94;77.90
65707;SHT31;52423;43.512;5.220;2024-01-15T10:12:29;5.92;78.16
65707;SHT31;52423;43.512;5.220;2024-01-15T10:14:56;5.91;78.23
65707;SHT31;52423;43.512;5.220;2024-01-15T10:17:21;5.85;78.41
65707;SHT31;52423;43.512;5.220;2024-01-15T10:19:47;5.81;77.69
65707;SHT31;52423;43.512;5.220;2024-01-15T10:22:14;5.85;78.63
65707;SHT31;52423;43.512;5.220;2024-01-15T10:24:40;5.89;78.63
65707;SHT31;52423;43.512;5.220;2024-01-15T10:27:07;5.95;77.88
65707;SHT31;52423;43.512;5.220;2024-01-15T10:29:34;5.94;78.49
65707;SHT31;52423;43.512;5.220;2024-01-15T10:31:59;5.88;79.11
65707;SHT31;52423;43.512;5.220;2024-01-15T10:34:26;5.92;79.68
65707;SHT31;52423;43.512;5.220;2024-01-15T10:36:51;5.95;78.81
65707;SHT31;52423;43.512;5.220;2024-01-15T10:39:22;6.01;79.28
65707;SHT31;52423;43.512;5.220;2024-01-15T10:41:47;6.10;79.16
65707;SHT31;52423;43.512;5.220;2024-01-15T10:44:13;6.20;78.94
65707;SHT31;52423;43.512;5.220;2024-01-15T10:46:38;6.37;78.74
65707;SHT31;52423;43.512;5.220;2024-01-15T10:49:04;6.46;77.99
65707;SHT31;52423;43.512;5.220;2024-01-15T10:51:29;6.63;77.49
65707;SHT31;52423;43.512;5.220;2024-01-15T10:53:56;6.76;77.73
65707;SHT31;52423;43.512;5.220;2024-01-15T10:56:22;6.85;77.27
65707;SHT31;52423;43.512;5.220;2024-01-15T10:58:49;7.04;76.74
65707;SHT31;52423;43.512;5.220;2024-01-15T11:01:15;7.15;76.34
65707;SHT31;52423;43.512;5.220;2024-01-15T11:03:42;7.35;75.20
65707;SHT31;52423;43.512;5.220;2024-01-15T11:06:18;7.45;75.24
65707;SHT31;52423;43.512;5.220;2024-01-15T11:08:51;7.58;74.76
65707;SHT31;52423;43.512;5.220;2024-01-15T11:11:17;7.65;75.69
65707;SHT31;52423;43.512;5.220;2024-01-15T11:13:46;7.73;74.90
65707;SHT31;52423;43.512;5.220;2024-01-15T11:16:14;7.83;72.39
65707;SHT31;52423;43.512;5.220;2024-01-15T11:18:41;7.80;72.20
65707;SHT31;52423;43.512;5.220;2024-01-15T11:23:53;7.71;72.35
65707;SHT31;52423;43.512;5.220;2024-01-15T11:28:58;7.59;73.80
65707;SHT31;52423;43.512;5.220;2024-01-15T11:31:28;7.59;72.51
65707;SHT31;52423;43.512;5.220;2024-01-15T11:33:54;7.67;73.17
65707;SHT31;52423;43.512;5.220;2024-01-15T11:36:21;7.70;73.44
65707;SHT31;52423;43.512;5.220;2024-01-15T11:38:47;7.73;73.15
65707;SHT31;52423;43.512;5.220;2024-01-15T11:41:15;7.65;74.42
65707;SHT31;52423;43.512;5.220;2024-01-15T11:43:41;7.56;72.86
65707;SHT31;52423;43.512;5.220;2024-01-15T11:46:11;7.59;74.58
65707;SHT31;52423;43.512;5.220;2024-01-15T11:48:50;7.66;75.24
65707;SHT31;52423;43.512;5.220;2024-01-15T11:51:22;7.67;74.63
65707;SHT31;52423;43.512;5.220;2024-01-15T11:53:48;7.77;75.68
65707;SHT31;52423;43.512;5.220;2024-01-15T11:56:18;7.86;75.80
65707;SHT31;52423;43.512;5.220;2024-01-15T11:58:46;8.01;75.69
65707;SHT31;52423;43.512;5.220;2024-01-15T12:01:12;8.10;76.24
65707;SHT31;52423;43.512;5.220;2024-01-15T12:03:38;8.25;75.01
65707;SHT31;52423;43.512;5.220;2024-01-15T12:06:07;8.41;75.35
65707;SHT31;52423;43.512;5.220;2024-01-15T12:08:32;8.56;78.16
65707;SHT31;52423;43.512;5.220;2024-01-15T12:10:58;8.93;77.87
65707;SHT31;52423;43.512;5.220;2024-01-15T12:13:23;9.24;76.35
65707;SHT31;52423;43.512;5.220;2024-01-15T12:15:49;9.57;75.14
65707;SHT31;52423;43.512;5.220;2024-01-15T12:18:17;9.86;73.67
65707;SHT31;52423;43.512;5.220;2024-01-15T12:20:43;10.17;72.70
65707;SHT31;52423;43.512;5.220;2024-01-15T12:23:11;10.28;73.85
65707;SHT31;52423;43.512;5.220;2024-01-15T12:25:38;10.47;72.73
65707;SHT31;52423;43.512;5.220;2024-01-15T12:28:05;10.44;68.17
65707;SHT31;52423;43.512;5.220;2024-01-15T12:30:30;10.26;70.08
65707;SHT31;52423;43.512;5.220;2024-01-15T12:32:58;10.12;68.14
65707;SHT31;52423;43.512;5.220;2024-01-15T12:35:24;10.06;68.23
65707;SHT31;52423;43.512;5.220;2024-01-15T12:37:51;10.05;68.19
65707;SHT31;52423;43.512;5.220;2024-01-15T12:40:19;9.83;69.29
65707;SHT31;52423;43.512;5.220;2024-01-15T12:42:44;9.75;69.91
65707;SHT31;52423;43.512;5.220;2024-01-15T12:45:11;9.74;70.80
65707;SHT31;52423;43.512;5.220;2024-01-15T12:47:38;9.72;71.44
65707;SHT31;52423;43.512;5.220;2024-01-15T12:50:08;9.81;71.09
65707;SHT31;52423;43.512;5.220;2024-01-15T12:52:33;9.86;70.67
65707;SHT31;52423;43.512;5.220;2024-01-15T12:54:59;9.95;71.41
65707;SHT31;52423;43.512;5.220;2024-01-15T12:57:24;10.02;70.56
65707;SHT31;52423;43.512;5.220;2024-01-15T12:59:50;10.13;70.50
65707;SHT31;52423;43.512;5.220;2024-01-15T13:02:16;10.20;70.34
65707;SHT31;52423;43.512;5.220;2024-01-15T13:04:42;10.28;71.43
65707;SHT31;52423;43.512;5.220;2024-01-15T13:07:07;10.33;71.26
65707;SHT31;52423;43.512;5.220;2024-01-15T13:09:33;10.51;72.11
65707;SHT31;52423;43.512;5.220;2024-01-15T13:12:00;10.65;71.94
65707;SHT31;52423;43.512;5.220;2024-01-15T13:14:26;10.87;72.76
65707;SHT31;52423;43.512;5.220;2024-01-15T13:16:52;11.02;70.84
65707;SHT31;52423;43.512;5.220;2024-01-15T13:19:19;11.14;70.41
65707;SHT31;52423;43.512;5.220;2024-01-15T13:21:44;11.14;69.16
65707;SHT31;52423;43.512;5.220;2024-01-15T13:24:10;11.11;70.43
65707;SHT31;52423;43.512;5.220;2024-01-15T13:26:36;11.00;71.73
65707;SHT31;52423;43.512;5.220;2024-01-15T13:29:05;11.04;72.06
65707;SHT31;52423;43.512;5.220;2024-01-15T13:31:31;11.19;71.86
65707;SHT31;52423;43.512;5.220;2024-01-15T13:33:56;11.32;69.12
65707;SHT31;52423;43.512;5.220;2024-01-15T13:36:23;11.52;68.46
65707;SHT31;52423;43.512;5.220;2024-01-15T13:38:49;11.52;68.28
65707;SHT31;52423;43.512;5.220;2024-01-15T13:41:15;11.55;67.66
65707;SHT31;52423;43.512;5.220;2024-01-15T13:43:41;11.56;68.42
65707;SHT31;52423;43.512;5.220;2024-01-15T13:46:06;11.56;69.04
65707;SHT31;52423;43.512;5.220;2024-01-15T13:48:32;11.69;67.49
65707;SHT31;52423;43.512;5.220;2024-01-15T13:50:58;11.69;68.40
65707;SHT31;52423;43.512;5.220;2024-01-15T13:53:24;11.74;66.85
65707;SHT31;52423;43.512;5.220;2024-01-15T13:55:50;11.66;67.61
65707;SHT31;52423;43.512;5.220;2024-01-15T13:58:15;11.82;66.61
65707;SHT31;52423;43.512;5.220;2024-01-15T14:00:42;11.77;67.50
65707;SHT31;52423;43.512;5.220;2024-01-15T14:03:08;11.95;67.71
65707;SHT31;52423;43.512;5.220;2024-01-15T14:05:33;12.05;66.04
65707;SHT31;52423;43.512;5.220;2024-01-15T14:07:59;12.08;66.19
65707;SHT31;52423;43.512;5.220;2024-01-15T14:10:24;12.07;65.84
65707;SHT31;52423;43.512;5.220;2024-01-15T14:12:49;12.08;66.43
65707;SHT31;52423;43.512;5.220;2024-01-15T14:15:15;12.07;68.07
65707;SHT31;52423;43.512;5.220;2024-01-15T14:17:40;12.03;67.23
65707;SHT31;52423;43.512;5.220;2024-01-15T14:20:06;11.94;68.06
65707;SHT31;52423;43.512;5.220;2024-01-15T14:22:32;11.98;66.81
65707;SHT31;52423;43.512;5.220;2024-01-15T14:24:57;11.97;67.72
65707;SHT31;52423;43.512;5.220;2024-01-15T14:27:24;12.03;66.40
65707;SHT31;52423;43.512;5.220;2024-01-15T14:29:49;11.94;68.23
65707;SHT31;52423;43.512;5.220;2024-01-15T14:32:14;12.00;67.67
65707;SHT31;52423;43.512;5.220;2024-01-15T14:34:40;12.18;66.50
65707;SHT31;52423;43.512;5.220;2024-01-15T14:37:05;12.14;66.38
65707;SHT31;52423;43.512;5.220;2024-01-15T14:39:31;12.18;67.42
65707;SHT31;52423;43.512;5.220;2024-01-15T14:41:59;12.17;67.62
65707;SHT31;52423;43.512;5.220;2024-01-15T14:44:24;12.04;67.67
65707;SHT31;52423;43.512;5.220;2024-01-15T14:46:50;12.04;67.34
65707;SHT31;52423;43.512;5.220;2024-01-15T14:49:15;11.98;67.99
65707;SHT31;52423;43.512;5.220;2024-01-15T14:51:42;12.00;68.52
65707;SHT31;52423;43.512;5.220;2024-01-15T14:54:09;12.04;67.30
65707;SHT31;52423;43.512;5.220;2024-01-15T14:56:34;11.94;68.20
65707;SHT31;52423;43.512;5.220;2024-01-15T14:59:00;11.90;67.70
65707;SHT31;52423;43.512;5.220;2024-01-15T15:01:25;11.82;68.95
65707;SHT31;52423;43.512;5.220;2024-01-15T15:03:51;11.80;69.44
65707;SHT31;52423;43.512;5.220;2024-01-15T15:06:16;11.79;68.91
65707;SHT31;52423;43.512;5.220;2024-01-15T15:08:41;11.77;69.32
65707;SHT31;52423;43.512;5.220;2024-01-15T15:11:07;11.70;68.73
65707;SHT31;52423;43.512;5.220;2024-01-15T15:13:33;11.67;67.77
65707;SHT31;52423;43.512;5.220;2024-01-15T15:16:00;11.59;69.10
65707;SHT31;52423;43.512;5.220;2024-01-15T15:18:25;11.59;68.94
65707;SHT31;52423;43.512;5.220;2024-01-15T15:20:51;11.52;68.48
65707;SHT31;52423;43.512;5.220;2024-01-15T15:23:17;11.46;69.35
65707;SHT31;52423;43.512;5.220;2024-01-15T15:25:43;11.39;70.07
65707;SHT31;52423;43.512;5.220;2024-01-15T15:28:08;11.32;70.84
65707;SHT31;52423;43.512;5.220;2024-01-15T15:30:35;11.32;71.02
65707;SHT31;52423;43.512;5.220;2024-01-15T15:33:00;11.39;70.46
65707;SHT31;52423;43.512;5.220;2024-01-15T15:35:25;11.38;71.40
65707;SHT31;52423;43.512;5.220;2024-01-15T15:37:51;11.33;70.55